createdAt,value
2022-07-29T00:01:00.629Z,72.60
2022-07-29T00:03:29.713Z,72.60
2022-07-29T00:05:57.544Z,73.10
2022-07-29T00:08:25.361Z,73.20
2022-07-29T00:10:53.199Z,73.40
2022-07-29T00:13:32.493Z,73.60
2022-07-29T00:16:03.630Z,73.50
2022-07-29T00:18:34.247Z,73.60
2022-07-29T00:21:01.943Z,73.70
2022-07-29T00:23:30.696Z,73.80
2022-07-29T00:25:59.320Z,74.00
2022-07-29T00:28:27.061Z,73.80
2022-07-29T00:30:54.796Z,73.80
2022-07-29T00:33:22.937Z,73.90
2022-07-29T00:35:51.176Z,74.00
2022-07-29T00:38:21.807Z,74.20
2022-07-29T00:40:50.624Z,74.40
2022-07-29T00:43:19.278Z,74.20
2022-07-29T00:45:47.076Z,74.40
2022-07-29T00:48:14.838Z,74.40
2022-07-29T00:50:42.704Z,74.50
2022-07-29T00:53:14.367Z,74.60
2022-07-29T00:55:42.145Z,74.80
2022-07-29T00:58:10.384Z,74.80
2022-07-29T01:00:38.259Z,74.60
2022-07-29T01:03:06.084Z,74.80
2022-07-29T01:05:50.595Z,75.10
2022-07-29T01:08:22.045Z,75.20
2022-07-29T01:10:51.127Z,75.30
2022-07-29T01:13:19.673Z,75.20
2022-07-29T01:15:53.096Z,75.50
2022-07-29T01:18:31.272Z,75.60
2022-07-29T01:21:23.850Z,75.80
2022-07-29T01:24:16.952Z,75.80
2022-07-29T01:26:51.354Z,76.10
2022-07-29T01:29:36.014Z,76.00
2022-07-29T01:32:22.600Z,76.20
2022-07-29T01:35:03.805Z,75.90
2022-07-29T01:37:38.351Z,76.10
2022-07-29T01:40:10.981Z,76.00
2022-07-29T01:42:42.573Z,76.00
2022-07-29T01:45:20.505Z,75.90
2022-07-29T01:47:54.770Z,75.90
2022-07-29T01:50:29.672Z,76.20
2022-07-29T01:53:01.873Z,76.20
2022-07-29T01:55:38.272Z,76.60
2022-07-29T01:58:08.819Z,76.90
2022-07-29T02:00:38.594Z,77.00
2022-07-29T02:03:11.573Z,77.00
2022-07-29T02:05:42.845Z,76.80
2022-07-29T02:08:12.713Z,76.20
2022-07-29T02:10:44.015Z,75.20
2022-07-29T02:13:14.035Z,74.70
2022-07-29T02:15:44.525Z,74.20
2022-07-29T02:18:17.356Z,74.20
2022-07-29T02:20:48.747Z,74.10
2022-07-29T02:23:20.836Z,74.00
2022-07-29T02:25:53.522Z,74.00
2022-07-29T02:28:22.253Z,75.00
2022-07-29T02:30:54.072Z,75.50
2022-07-29T02:33:23.154Z,75.60
2022-07-29T02:35:51.983Z,75.80
2022-07-29T02:38:34.801Z,75.40
2022-07-29T02:41:06.602Z,75.20
2022-07-29T02:43:36.021Z,75.50
2022-07-29T02:46:14.946Z,76.80
2022-07-29T02:49:01.315Z,77.00
2022-07-29T02:51:43.772Z,77.30
2022-07-29T02:54:17.179Z,77.80
2022-07-29T02:56:47.300Z,77.40
2022-07-29T02:59:18.583Z,77.60
2022-07-29T03:01:50.696Z,77.90
2022-07-29T03:04:22.807Z,77.60
2022-07-29T03:06:53.168Z,78.20
2022-07-29T03:09:22.089Z,78.70
2022-07-29T03:11:51.031Z,78.90
2022-07-29T03:14:21.507Z,79.60
2022-07-29T03:16:52.443Z,79.70
2022-07-29T03:19:21.417Z,80.00
2022-07-29T03:21:49.723Z,80.10
2022-07-29T03:24:33.749Z,80.50
2022-07-29T03:27:02.063Z,81.00
2022-07-29T03:29:33.408Z,81.00
2022-07-29T03:32:07.318Z,81.10
2022-07-29T03:34:37.598Z,81.60
2022-07-29T03:37:06.672Z,81.60
2022-07-29T03:39:38.407Z,81.60
2022-07-29T03:42:08.631Z,81.70
2022-07-29T03:44:38.032Z,81.70
2022-07-29T03:47:09.828Z,81.40
2022-07-29T03:49:39.588Z,81.70
2022-07-29T03:52:07.946Z,81.60
2022-07-29T03:54:35.839Z,82.20
2022-07-29T03:57:05.320Z,82.40
2022-07-29T03:59:34.845Z,82.30
2022-07-29T04:02:04.516Z,82.40
2022-07-29T04:04:36.248Z,82.50
2022-07-29T04:07:04.202Z,83.00
2022-07-29T04:09:32.367Z,83.10
2022-07-29T04:12:03.123Z,83.20
2022-07-29T04:14:32.745Z,83.20
2022-07-29T04:17:00.618Z,83.10
2022-07-29T04:19:31.107Z,83.20
2022-07-29T04:22:00.902Z,83.20
2022-07-29T04:24:29.655Z,83.30
2022-07-29T04:26:57.538Z,83.40
2022-07-29T04:29:25.264Z,83.50
2022-07-29T04:31:53.108Z,83.60
2022-07-29T04:34:28.161Z,83.40
2022-07-29T04:36:56.333Z,83.40
2022-07-29T04:39:25.378Z,83.40
2022-07-29T04:41:56.433Z,83.10
2022-07-29T04:44:28.469Z,82.30
2022-07-29T04:46:57.793Z,82.00
2022-07-29T04:49:25.742Z,82.30
2022-07-29T04:51:53.538Z,82.40
2022-07-29T04:54:21.353Z,82.60
2022-07-29T04:56:50.400Z,82.80
2022-07-29T04:59:18.116Z,82.80
2022-07-29T05:01:45.999Z,82.90
2022-07-29T05:04:14.195Z,83.00
2022-07-29T05:06:42.179Z,83.00
2022-07-29T05:09:09.899Z,83.20
2022-07-29T05:11:37.599Z,83.60
2022-07-29T05:14:06.681Z,83.70
2022-07-29T05:16:34.515Z,83.50
2022-07-29T05:19:02.353Z,83.30
2022-07-29T05:21:30.126Z,83.10
2022-07-29T05:23:57.896Z,83.40
2022-07-29T05:26:25.609Z,83.10
2022-07-29T05:28:54.724Z,83.10
2022-07-29T05:31:23.808Z,83.20
2022-07-29T05:33:51.607Z,82.90
2022-07-29T05:36:19.475Z,82.70
2022-07-29T05:38:47.214Z,82.30
2022-07-29T05:41:14.868Z,82.10
2022-07-29T05:43:42.551Z,80.90
2022-07-29T05:46:10.362Z,81.00
2022-07-29T05:48:39.778Z,80.70
2022-07-29T05:51:07.619Z,81.00
2022-07-29T05:53:35.772Z,80.60
2022-07-29T05:56:06.600Z,79.70
2022-07-29T05:58:39.521Z,79.50
2022-07-29T06:01:07.296Z,79.20
2022-07-29T06:03:38.546Z,79.70
2022-07-29T06:06:09.566Z,79.00
2022-07-29T06:08:37.467Z,78.40
2022-07-29T06:11:06.370Z,76.80
2022-07-29T06:13:34.161Z,76.40
2022-07-29T06:16:02.052Z,75.60
2022-07-29T06:18:29.876Z,74.20
2022-07-29T06:20:57.835Z,73.60
2022-07-29T06:23:26.868Z,74.50
2022-07-29T06:25:54.659Z,73.90
2022-07-29T06:28:22.372Z,73.30
2022-07-29T06:30:50.162Z,72.40
2022-07-29T06:33:19.951Z,72.30
2022-07-29T06:35:55.044Z,70.90
2022-07-29T06:38:30.961Z,69.20
2022-07-29T06:41:02.947Z,66.40
2022-07-29T06:43:34.472Z,64.40
2022-07-29T06:46:03.092Z,62.90
2022-07-29T06:48:31.033Z,60.10
2022-07-29T06:50:58.997Z,59.90
2022-07-29T06:53:27.161Z,58.50
2022-07-29T06:56:03.671Z,61.10
2022-07-29T06:58:32.430Z,58.20
2022-07-29T07:01:02.860Z,59.10
2022-07-29T07:03:30.829Z,57.50
2022-07-29T07:05:59.013Z,57.80
2022-07-29T07:08:27.979Z,58.00
2022-07-29T07:10:56.044Z,58.20
2022-07-29T07:13:25.142Z,58.20
2022-07-29T07:15:53.070Z,57.00
2022-07-29T07:18:22.123Z,55.00
2022-07-29T07:20:49.866Z,55.30
2022-07-29T07:23:17.909Z,53.70
2022-07-29T07:25:46.035Z,53.70
2022-07-29T07:28:13.817Z,52.00
2022-07-29T07:30:43.130Z,52.60
2022-07-29T07:33:10.871Z,53.60
2022-07-29T07:35:38.681Z,53.10
2022-07-29T07:38:07.658Z,52.20
2022-07-29T07:40:35.621Z,50.60
2022-07-29T07:43:03.459Z,49.70
2022-07-29T07:45:33.347Z,49.20
2022-07-29T07:48:02.495Z,49.30
2022-07-29T07:50:30.281Z,49.40
2022-07-29T07:52:59.327Z,49.30
2022-07-29T07:55:28.159Z,48.20
2022-07-29T07:57:56.233Z,49.80
2022-07-29T08:00:24.594Z,49.50
2022-07-29T08:02:52.686Z,49.20
2022-07-29T08:05:21.791Z,49.20
2022-07-29T08:07:49.509Z,48.40
2022-07-29T08:10:38.619Z,47.70
2022-07-29T08:13:06.574Z,47.80
2022-07-29T08:15:34.385Z,46.80
2022-07-29T08:18:08.054Z,46.50
2022-07-29T08:20:39.204Z,45.90
2022-07-29T08:23:10.336Z,45.70
2022-07-29T08:25:40.278Z,45.20
2022-07-29T08:28:08.634Z,44.00
2022-07-29T08:30:36.663Z,43.20
2022-07-29T08:33:04.746Z,42.40
2022-07-29T08:35:35.571Z,41.40
2022-07-29T08:38:05.633Z,40.20
2022-07-29T08:40:33.800Z,38.10
2022-07-29T08:43:07.667Z,37.60
2022-07-29T08:45:47.767Z,38.10
2022-07-29T08:48:17.382Z,38.30
2022-07-29T08:50:49.439Z,38.20
2022-07-29T08:53:19.614Z,38.60
2022-07-29T08:55:50.623Z,39.10
2022-07-29T08:58:22.945Z,38.40
2022-07-29T09:00:56.703Z,38.90
2022-07-29T09:03:31.698Z,38.20
2022-07-29T09:06:00.798Z,38.30
2022-07-29T09:08:30.194Z,38.30
2022-07-29T09:10:59.213Z,37.70
2022-07-29T09:13:27.954Z,38.10
2022-07-29T09:15:55.756Z,37.70
2022-07-29T09:18:39.383Z,36.70
2022-07-29T09:21:22.843Z,37.20
2022-07-29T09:24:08.467Z,36.30
2022-07-29T09:26:38.241Z,35.40
2022-07-29T09:29:15.152Z,34.70
2022-07-29T09:31:44.805Z,35.50
2022-07-29T09:34:14.327Z,34.60
2022-07-29T09:36:43.735Z,35.00
2022-07-29T09:39:15.258Z,34.40
2022-07-29T09:41:48.276Z,34.10
2022-07-29T09:44:16.590Z,34.50
2022-07-29T09:46:59.142Z,34.70
2022-07-29T09:49:27.655Z,35.10
2022-07-29T09:52:06.456Z,35.10
2022-07-29T09:54:38.496Z,35.90
2022-07-29T09:57:07.417Z,36.20
2022-07-29T09:59:35.538Z,38.40
2022-07-29T10:02:12.799Z,38.50
2022-07-29T10:04:41.493Z,37.20
2022-07-29T10:07:10.459Z,38.80
2022-07-29T10:09:39.801Z,38.70
2022-07-29T10:12:11.734Z,38.20
2022-07-29T10:14:40.334Z,37.50
2022-07-29T10:17:09.330Z,36.30
2022-07-29T10:19:38.391Z,35.40
2022-07-29T10:22:08.720Z,33.80
2022-07-29T10:24:38.168Z,34.40
2022-07-29T10:27:09.096Z,33.60
2022-07-29T10:29:37.215Z,32.90
2022-07-29T10:32:33.450Z,33.80
2022-07-29T10:35:20.750Z,34.60
2022-07-29T10:38:04.015Z,35.40
2022-07-29T10:40:59.235Z,37.10
2022-07-29T10:43:33.655Z,36.20
2022-07-29T10:46:02.488Z,37.70
2022-07-29T10:48:30.635Z,37.50
2022-07-29T10:51:01.315Z,39.20
2022-07-29T10:53:48.991Z,39.20
2022-07-29T10:56:34.524Z,38.90
2022-07-29T10:59:27.071Z,40.40
2022-07-29T11:02:35.531Z,38.70
2022-07-29T11:05:09.195Z,37.90
2022-07-29T11:07:45.648Z,35.20
2022-07-29T11:10:31.407Z,34.70
2022-07-29T11:12:59.823Z,34.40
2022-07-29T11:15:31.732Z,33.20
2022-07-29T11:18:15.070Z,34.00
2022-07-29T11:20:54.015Z,36.20
2022-07-29T11:23:27.295Z,34.30
2022-07-29T11:26:26.005Z,34.80
2022-07-29T11:29:01.776Z,34.80
2022-07-29T11:31:42.296Z,35.80
2022-07-29T11:34:29.855Z,36.60
2022-07-29T11:37:27.683Z,39.00
2022-07-29T11:40:13.107Z,37.70
2022-07-29T11:42:44.907Z,37.70
2022-07-29T11:45:41.702Z,37.50
2022-07-29T11:48:31.660Z,37.10
2022-07-29T11:50:55.067Z,38.20
2022-07-29T11:53:23.252Z,38.90
2022-07-29T11:55:58.140Z,39.00
2022-07-29T11:58:26.975Z,38.30
2022-07-29T12:00:56.193Z,38.70
2022-07-29T12:03:35.437Z,38.60
2022-07-29T12:06:07.614Z,38.70
2022-07-29T12:08:43.195Z,40.40
2022-07-29T12:11:20.772Z,40.50
2022-07-29T12:13:50.165Z,39.60
2022-07-29T12:16:26.020Z,39.60
2022-07-29T12:19:00.474Z,41.10
2022-07-29T12:21:31.034Z,40.80
2022-07-29T12:24:05.953Z,41.50
2022-07-29T12:26:38.136Z,42.40
2022-07-29T12:29:20.453Z,42.80
2022-07-29T12:32:02.674Z,42.90
2022-07-29T12:34:32.436Z,43.60
2022-07-29T12:37:04.403Z,42.80
2022-07-29T12:39:32.720Z,43.70
2022-07-29T12:42:04.724Z,45.10
2022-07-29T12:44:46.313Z,44.50
2022-07-29T12:47:14.237Z,44.40
2022-07-29T12:49:43.537Z,45.20
2022-07-29T12:52:30.385Z,44.60
2022-07-29T12:54:58.856Z,44.60
2022-07-29T12:57:27.163Z,43.70
2022-07-29T13:00:06.023Z,45.10
2022-07-29T13:02:34.057Z,44.80
2022-07-29T13:05:04.908Z,44.60
2022-07-29T13:07:54.299Z,44.00
2022-07-29T13:10:24.730Z,44.50
2022-07-29T13:13:10.210Z,44.40
2022-07-29T13:15:38.818Z,44.30
2022-07-29T13:18:27.411Z,45.00
2022-07-29T13:20:56.976Z,43.80
2022-07-29T13:23:24.912Z,43.60
2022-07-29T13:25:52.670Z,43.00
2022-07-29T13:28:22.375Z,43.20
2022-07-29T13:30:50.177Z,44.30
2022-07-29T13:33:17.948Z,43.20
2022-07-29T13:35:45.876Z,44.20
2022-07-29T13:38:15.047Z,42.90
2022-07-29T13:40:43.129Z,43.40
2022-07-29T13:43:11.278Z,43.70
2022-07-29T13:45:39.807Z,44.20
2022-07-29T13:48:08.288Z,43.50
2022-07-29T13:50:36.159Z,43.30
2022-07-29T13:53:04.028Z,45.20
2022-07-29T13:58:46.087Z,44.00
2022-07-29T14:01:15.187Z,44.50
2022-07-29T14:03:45.725Z,43.80
2022-07-29T14:06:14.203Z,43.80
2022-07-29T14:08:42.013Z,44.00
2022-07-29T14:11:11.135Z,44.00
2022-07-29T14:13:38.946Z,44.00
2022-07-29T14:16:07.888Z,44.10
2022-07-29T14:18:35.727Z,44.20
2022-07-29T14:21:03.824Z,44.10
2022-07-29T14:23:31.708Z,44.20
2022-07-29T14:26:02.351Z,43.80
2022-07-29T14:28:32.085Z,44.10
2022-07-29T14:30:59.817Z,45.00
2022-07-29T14:33:30.807Z,45.50
2022-07-29T14:36:01.237Z,45.00
2022-07-29T14:38:29.401Z,45.00
2022-07-29T14:41:02.840Z,46.00
2022-07-29T14:43:32.049Z,45.00
2022-07-29T14:46:03.996Z,44.70
2022-07-29T14:48:32.991Z,44.40
2022-07-29T14:51:04.542Z,44.50
2022-07-29T14:53:33.661Z,45.50
2022-07-29T14:56:20.917Z,45.90
2022-07-29T14:58:52.141Z,45.70
2022-07-29T15:01:20.343Z,44.80
2022-07-29T15:03:48.339Z,45.00
2022-07-29T15:06:16.060Z,44.60
2022-07-29T15:08:44.215Z,45.00
2022-07-29T15:11:11.995Z,45.80
2022-07-29T15:13:40.729Z,45.80
2022-07-29T15:16:10.156Z,46.20
2022-07-29T15:18:39.244Z,45.90
2022-07-29T15:21:08.411Z,46.20
2022-07-29T15:23:37.073Z,45.80
2022-07-29T15:26:05.374Z,46.60
2022-07-29T15:28:33.131Z,46.80
2022-07-29T15:31:00.927Z,47.40
2022-07-29T15:33:29.994Z,45.80
2022-07-29T15:35:58.323Z,47.50
2022-07-29T15:38:28.610Z,47.80
2022-07-29T15:40:56.771Z,47.30
2022-07-29T15:43:24.564Z,47.10
2022-07-29T15:46:08.307Z,47.60
2022-07-29T15:48:40.150Z,46.90
2022-07-29T15:51:08.083Z,47.00
2022-07-29T15:53:35.789Z,47.10
2022-07-29T15:56:03.532Z,47.30
2022-07-29T15:58:31.607Z,47.60
2022-07-29T16:00:59.378Z,47.00
2022-07-29T16:03:27.196Z,47.40
2022-07-29T16:05:56.248Z,48.00
2022-07-29T16:08:24.043Z,48.20
2022-07-29T16:10:51.799Z,48.30
2022-07-29T16:13:19.598Z,47.10
2022-07-29T16:16:02.053Z,47.50
2022-07-29T16:18:30.898Z,48.20
2022-07-29T16:21:00.180Z,48.40
2022-07-29T16:23:28.637Z,48.80
2022-07-29T16:26:00.250Z,49.60
2022-07-29T16:28:29.136Z,50.10
2022-07-29T16:30:57.056Z,49.30
2022-07-29T16:33:25.178Z,48.20
2022-07-29T16:35:53.897Z,49.40
2022-07-29T16:38:23.063Z,47.00
2022-07-29T16:41:01.319Z,47.20
2022-07-29T16:43:29.028Z,48.30
2022-07-29T16:45:56.866Z,47.90
2022-07-29T16:48:24.711Z,48.60
2022-07-29T16:50:53.832Z,48.60
2022-07-29T16:53:25.238Z,48.70
2022-07-29T16:55:56.104Z,48.80
2022-07-29T16:58:23.967Z,48.60
2022-07-29T17:00:52.295Z,48.70
2022-07-29T17:03:20.327Z,49.50
2022-07-29T17:05:50.668Z,48.40
2022-07-29T17:08:23.646Z,48.20
2022-07-29T17:10:51.452Z,48.00
2022-07-29T17:13:21.744Z,47.90
2022-07-29T17:15:50.868Z,48.50
2022-07-29T17:18:18.676Z,48.30
2022-07-29T17:20:46.475Z,48.20
2022-07-29T17:23:17.367Z,48.10
2022-07-29T17:25:46.415Z,48.10
2022-07-29T17:28:14.218Z,48.50
2022-07-29T17:30:42.046Z,48.30
2022-07-29T17:33:09.859Z,48.30
2022-07-29T17:35:51.643Z,48.50
2022-07-29T17:38:19.846Z,49.50
2022-07-29T17:40:49.088Z,49.50
2022-07-29T17:43:17.263Z,47.90
2022-07-29T17:45:49.376Z,47.90
2022-07-29T17:48:20.454Z,47.50
2022-07-29T17:50:51.875Z,48.10
2022-07-29T17:53:19.910Z,48.30
2022-07-29T17:55:49.738Z,48.80
2022-07-29T17:58:17.592Z,49.10
2022-07-29T18:00:46.521Z,49.30
2022-07-29T18:03:14.511Z,49.40
2022-07-29T18:05:42.680Z,49.60
2022-07-29T18:08:10.712Z,49.50
2022-07-29T18:10:39.132Z,49.60
2022-07-29T18:13:08.642Z,49.50
2022-07-29T18:15:37.477Z,49.70
2022-07-29T18:18:05.931Z,50.00
2022-07-29T18:20:34.682Z,51.10
2022-07-29T18:23:03.283Z,51.10
2022-07-29T18:25:31.838Z,50.50
2022-07-29T18:28:00.736Z,50.40
2022-07-29T18:30:35.643Z,50.90
2022-07-29T18:33:20.606Z,50.30
2022-07-29T18:35:51.894Z,51.50
2022-07-29T18:38:22.126Z,50.80
2022-07-29T18:40:50.103Z,51.50
2022-07-29T18:43:18.011Z,52.60
2022-07-29T18:45:48.325Z,52.40
2022-07-29T18:48:18.328Z,52.90
2022-07-29T18:50:46.277Z,53.10
2022-07-29T18:53:14.172Z,52.10
2022-07-29T18:55:42.983Z,53.00
2022-07-29T18:58:10.937Z,52.30
2022-07-29T19:00:39.077Z,53.60
2022-07-29T19:03:08.789Z,52.50
2022-07-29T19:05:37.723Z,52.80
2022-07-29T19:08:07.562Z,52.50
2022-07-29T19:10:43.170Z,52.70
2022-07-29T19:13:17.693Z,54.70
2022-07-29T19:15:46.507Z,54.60
2022-07-29T19:18:15.859Z,54.80
2022-07-29T19:20:44.032Z,54.80
2022-07-29T19:23:12.585Z,54.00
2022-07-29T19:25:53.217Z,53.30
2022-07-29T19:28:22.016Z,55.20
2022-07-29T19:30:49.985Z,57.00
2022-07-29T19:33:19.467Z,58.20
2022-07-29T19:35:51.597Z,58.40
2022-07-29T19:38:25.533Z,59.10
2022-07-29T19:40:54.765Z,60.70
2022-07-29T19:43:50.994Z,59.60
2022-07-29T19:46:10.369Z,60.40
2022-07-29T19:48:39.705Z,59.80
2022-07-29T19:51:07.851Z,59.90
2022-07-29T19:53:35.731Z,60.40
2022-07-29T19:56:03.440Z,61.20
2022-07-29T19:58:31.325Z,60.40
2022-07-29T20:01:00.391Z,60.60
2022-07-29T20:03:28.227Z,61.20
2022-07-29T20:05:57.280Z,61.00
2022-07-29T20:08:25.037Z,61.20
2022-07-29T20:10:54.533Z,60.50
2022-07-29T20:13:22.289Z,61.20
2022-07-29T20:15:50.062Z,61.80
2022-07-29T20:18:18.225Z,61.50
2022-07-29T20:20:49.905Z,61.90
2022-07-29T20:23:22.044Z,62.40
2022-07-29T20:25:50.835Z,62.90
2022-07-29T20:28:18.640Z,62.10
2022-07-29T20:30:47.545Z,62.10
2022-07-29T20:33:15.907Z,63.90
2022-07-29T20:35:43.615Z,62.80
2022-07-29T20:38:15.017Z,62.50
2022-07-29T20:40:47.049Z,62.60
2022-07-29T20:43:15.091Z,63.00
2022-07-29T20:45:43.025Z,62.00
2022-07-29T20:48:11.420Z,61.90
2022-07-29T20:50:39.333Z,62.30
2022-07-29T20:53:07.102Z,63.20
2022-07-29T20:55:34.880Z,64.10
2022-07-29T20:58:04.013Z,65.10
2022-07-29T21:00:32.070Z,65.50
2022-07-29T21:03:00.037Z,65.00
2022-07-29T21:05:28.335Z,64.60
2022-07-29T21:07:58.171Z,64.40
2022-07-29T21:10:26.099Z,64.30
2022-07-29T21:12:53.794Z,64.60
2022-07-29T21:15:25.446Z,65.30
2022-07-29T21:18:00.372Z,66.50
2022-07-29T21:20:28.743Z,67.20
2022-07-29T21:22:56.586Z,67.80
2022-07-29T21:25:25.235Z,67.70
2022-07-29T21:28:07.008Z,68.30
2022-07-29T21:30:36.305Z,67.00
2022-07-29T21:33:05.106Z,68.40
2022-07-29T21:36:07.355Z,68.80
2022-07-29T21:38:24.084Z,69.50
2022-07-29T21:40:53.264Z,68.20
2022-07-29T21:43:21.504Z,69.10
2022-07-29T21:45:51.274Z,68.00
2022-07-29T21:48:20.135Z,68.30
2022-07-29T21:50:49.342Z,68.40
2022-07-29T21:53:17.480Z,68.60
2022-07-29T21:55:50.861Z,68.30
2022-07-29T21:58:19.223Z,69.90
2022-07-29T22:00:46.935Z,69.80
2022-07-29T22:03:16.382Z,70.00
2022-07-29T22:05:44.243Z,70.70
2022-07-29T22:08:12.834Z,70.70
2022-07-29T22:10:40.620Z,70.80
2022-07-29T22:13:08.429Z,71.00
2022-07-29T22:15:36.276Z,71.60
2022-07-29T22:18:04.188Z,71.60
2022-07-29T22:20:33.276Z,71.90
2022-07-29T22:23:01.198Z,72.10
2022-07-29T22:25:28.981Z,71.70
2022-07-29T22:27:56.693Z,72.10
2022-07-29T22:30:24.535Z,72.60
2022-07-29T22:32:52.256Z,72.40
2022-07-29T22:35:20.214Z,72.70
2022-07-29T22:37:50.970Z,72.80
2022-07-29T22:40:18.753Z,73.20
2022-07-29T22:42:46.484Z,73.20
2022-07-29T22:45:14.239Z,72.90
2022-07-29T22:47:48.512Z,73.50
2022-07-29T22:50:17.116Z,73.20
2022-07-29T22:52:45.053Z,72.90
2022-07-29T22:55:14.372Z,72.90
2022-07-29T22:57:42.595Z,73.50
2022-07-29T23:00:11.498Z,73.60
2022-07-29T23:02:41.127Z,73.60
2022-07-29T23:05:10.152Z,73.90
2022-07-29T23:07:38.013Z,73.80
2022-07-29T23:10:06.575Z,74.00
2022-07-29T23:12:35.876Z,74.00
2022-07-29T23:15:04.465Z,73.90
2022-07-29T23:17:36.690Z,73.50
2022-07-29T23:20:07.357Z,73.80
2022-07-29T23:22:35.237Z,75.70
2022-07-29T23:25:03.102Z,76.20
2022-07-29T23:27:30.860Z,76.40
2022-07-29T23:30:00.009Z,76.40
2022-07-29T23:32:27.857Z,76.20
2022-07-29T23:34:55.791Z,75.70
2022-07-29T23:37:23.539Z,75.70
2022-07-29T23:39:51.316Z,75.90
2022-07-29T23:42:19.087Z,76.20
2022-07-29T23:44:46.829Z,77.00
2022-07-29T23:47:16.154Z,77.10
2022-07-29T23:49:43.957Z,77.40
2022-07-29T23:52:11.696Z,77.50
2022-07-29T23:54:39.436Z,77.80
2022-07-29T23:57:07.184Z,78.00
2022-07-29T23:59:34.914Z,78.30
